Time;durP1;ratioP1;P1;durP2;ratioP2;P2;SDS_P1;SDS_P2;PMS_P1;PMS_P2;Temp;Humidity;BMP_temperature;BMP_pressure;BME280_temperature;BME280_humidity;BME280_pressure;Samples;Min_cycle;Max_cycle;Signal;HPM_P1;HPM_P2
2021/06/18 00:01:40;;;;;;;;;;;16.30;99.90;;;15.71;100.00;100430.88;5052354;28;19925;-63
2021/06/18 00:04:08;;;;;;;;;;;16.30;99.90;;;15.70;100.00;100415.63;5051227;28;19936;-63
2021/06/18 00:06:36;;;;;;;;;;;16.20;99.90;;;15.77;100.00;100418.63;5051736;28;19924;-63
2021/06/18 00:09:07;;;;;;;;;;;16.20;99.90;;;15.69;100.00;100433.09;5052569;28;19955;-63
2021/06/18 00:11:34;;;;;;;;;;;16.20;99.90;;;15.68;100.00;100436.97;5051199;28;19932;-63
2021/06/18 00:14:05;;;;;;;;;;;16.10;99.90;;;15.77;100.00;100435.78;5052266;28;19959;-63
2021/06/18 00:16:33;;;;;;;;;;;16.10;99.90;;;15.75;100.00;100426.31;5050451;28;19925;-62
2021/06/18 00:19:01;;;;;;;;;;;16.10;99.90;;;15.82;100.00;100427.41;5051361;28;19932;-64
2021/06/18 00:21:28;;;;;;;;;;;16.10;99.90;;;15.92;100.00;100417.22;5052248;28;19967;-65
2021/06/18 00:23:56;;;;;;;;;;;16.20;99.90;;;15.93;100.00;100405.19;5052095;28;19932;-65
2021/06/18 00:26:25;;;;;;;;;;;16.20;99.90;;;15.91;100.00;100402.78;5051465;28;19929;-65
2021/06/18 00:28:53;;;;;;;;;;;16.20;99.90;;;15.90;100.00;100395.72;5052433;28;19995;-64
2021/06/18 00:31:21;;;;;;;;;;;16.20;99.90;;;15.84;100.00;100397.84;5052171;28;19929;-65
2021/06/18 00:33:49;;;;;;;;;;;16.10;99.90;;;15.76;100.00;100389.75;5052347;28;20382;-64
2021/06/18 00:36:16;;;;;;;;;;;16.20;99.90;;;15.79;100.00;100389.09;5051143;28;19976;-64
2021/06/18 00:38:44;;;;;;;;;;;16.10;99.90;;;15.84;100.00;100395.13;5052107;28;19932;-65
2021/06/18 00:41:12;;;;;;;;;;;16.10;99.90;;;15.85;100.00;100390.47;5050835;28;19925;-63
2021/06/18 00:43:42;;;;;;;;;;;16.10;99.90;;;15.83;100.00;100381.84;5052345;28;20378;-63
2021/06/18 00:46:11;;;;;;;;;;;16.10;99.90;;;15.83;100.00;100381.84;5050366;28;19924;-65
2021/06/18 00:48:38;;;;;;;;;;;16.10;99.90;;;15.81;100.00;100370.47;5050668;28;19924;-62
2021/06/18 00:51:06;;;;;;;;;;;16.10;99.90;;;15.84;100.00;100378.78;5051842;28;19925;-65
2021/06/18 00:53:35;;;;;;;;;;;16.10;99.90;;;15.88;100.00;100383.56;5052348;28;20298;-65
2021/06/18 00:56:03;;;;;;;;;;;16.10;99.90;;;15.92;100.00;100390.75;5051437;28;19928;-64
2021/06/18 00:58:31;;;;;;;;;;;16.20;99.90;;;15.92;100.00;100385.28;5051806;28;19932;-64
2021/06/18 01:01:00;;;;;;;;;;;16.20;99.90;;;15.83;100.00;100393.56;5051844;28;19932;-65
2021/06/18 01:03:28;;;;;;;;;;;16.10;99.90;;;15.83;100.00;100388.09;5051896;28;19924;-65
2021/06/18 01:05:56;;;;;;;;;;;16.10;99.90;;;15.80;100.00;100390.69;5051332;28;19928;-65
2021/06/18 01:08:25;;;;;;;;;;;16.20;99.90;;;15.72;100.00;100389.63;5051502;28;20263;-65
2021/06/18 01:11:00;;;;;;;;;;;16.20;99.90;;;15.74;100.00;100383.84;5051854;28;19929;-64
2021/06/18 01:13:56;;;;;;;;;;;16.20;99.90;;;15.79;100.00;100387.16;5052053;28;19925;-65
2021/06/18 01:16:32;;;;;;;;;;;16.10;99.90;;;15.84;100.00;100391.59;5050873;28;20428;-65
2021/06/18 01:19:02;;;;;;;;;;;16.10;99.90;;;15.87;100.00;100385.47;5052566;28;20015;-65
2021/06/18 01:21:33;;;;;;;;;;;16.10;99.90;;;15.94;100.00;100382.22;5055501;28;19924;-62
2021/06/18 01:24:35;;;;;;;;;;;16.20;99.90;;;15.83;100.00;100374.47;5054321;28;19935;-62
2021/06/18 01:27:11;;;;;;;;;;;;;;;15.76;100.00;100357.84;5054926;28;19929;-63
2021/06/18 01:29:45;;;;;;;;;;;16.00;99.90;;;15.73;100.00;100357.72;5055161;28;19925;-63
2021/06/18 01:32:19;;;;;;;;;;;16.00;99.90;;;15.69;100.00;100354.84;5038223;28;19963;-63
2021/06/18 01:34:47;;;;;;;;;;;16.00;99.90;;;15.68;100.00;100355.22;5054974;28;19936;-63
2021/06/18 01:37:18;;;;;;;;;;;16.00;99.90;;;15.71;100.00;100368.16;5054766;28;19995;-63
2021/06/18 01:39:47;;;;;;;;;;;16.10;99.90;;;15.76;100.00;100366.03;5054949;28;20352;-63
2021/06/18 01:42:17;;;;;;;;;;;16.10;99.90;;;15.74;100.00;100360.13;5055253;28;19932;-64
2021/06/18 01:44:47;;;;;;;;;;;16.00;99.90;;;15.74;100.00;100362.84;5054478;28;19929;-64
2021/06/18 01:47:17;;;;;;;;;;;16.00;99.90;;;15.77;100.00;100364.09;5054309;28;19925;-65
2021/06/18 01:49:45;;;;;;;;;;;16.00;99.90;;;15.76;100.00;100368.75;5054822;28;20019;-65
2021/06/18 01:52:15;;;;;;;;;;;16.10;99.90;;;15.77;100.00;100367.63;5055071;28;19933;-65
2021/06/18 01:54:44;;;;;;;;;;;16.00;99.90;;;15.82;100.00;100363.88;5054559;28;20504;-64
2021/06/18 01:57:14;;;;;;;;;;;16.10;99.90;;;15.91;100.00;100370.06;5054278;28;20019;-64
2021/06/18 01:59:45;;;;;;;;;;;16.10;99.90;;;15.91;100.00;100372.78;5054533;28;20020;-65
2021/06/18 02:02:13;;;;;;;;;;;16.20;99.90;;;15.87;100.00;100369.13;5055318;28;19925;-64
2021/06/18 02:04:43;;;;;;;;;;;16.10;99.90;;;15.81;100.00;100363.09;5054202;28;20839;-64
2021/06/18 02:07:13;;;;;;;;;;;16.10;99.90;;;15.76;100.00;100360.56;5054206;28;19929;-64
2021/06/18 02:09:41;;;;;;;;;;;16.00;99.90;;;15.77;100.00;100353.19;5054495;28;20520;-65
2021/06/18 02:12:10;;;;;;;;;;;16.10;99.90;;;15.85;100.00;100349.59;5054429;28;19929;-65
2021/06/18 02:14:39;;;;;;;;;;;16.10;99.90;;;15.88;100.00;100357.09;5052627;28;20157;-65
2021/06/18 02:17:08;;;;;;;;;;;16.10;99.90;;;15.91;100.00;100358.34;5053931;28;20324;-64
2021/06/18 02:19:37;;;;;;;;;;;16.20;99.90;;;15.80;100.00;100353.34;5054354;28;20203;-65
2021/06/18 02:22:06;;;;;;;;;;;16.10;99.90;;;15.74;100.00;100364.78;5054529;28;19928;-65
2021/06/18 02:24:35;;;;;;;;;;;16.00;99.90;;;15.79;100.00;100359.09;5053793;28;19924;-65
2021/06/18 02:27:04;;;;;;;;;;;16.10;99.90;;;15.85;100.00;100361.28;5053488;28;20271;-65
2021/06/18 02:29:32;;;;;;;;;;;16.10;99.90;;;15.88;100.00;100369.91;5053157;28;19925;-65
2021/06/18 02:32:02;;;;;;;;;;;16.10;99.90;;;15.85;100.00;100365.94;5054142;28;20152;-64
2021/06/18 02:34:32;;;;;;;;;;;16.00;99.90;;;15.74;100.00;100378.41;5052636;28;19928;-64
2021/06/18 02:37:01;;;;;;;;;;;16.00;99.90;;;15.69;100.00;100381.31;5053694;28;20011;-63
2021/06/18 02:39:28;;;;;;;;;;;16.00;99.90;;;15.60;100.00;100386.03;5053766;28;20405;-65
2021/06/18 02:41:56;;;;;;;;;;;15.90;99.90;;;15.60;100.00;100386.84;5054061;28;19978;-63
2021/06/18 02:44:24;;;;;;;;;;;15.90;99.90;;;15.68;100.00;100386.00;5052758;28;19929;-63
2021/06/18 02:46:58;;;;;;;;;;;15.90;99.90;;;15.68;100.00;100380.53;5052753;28;19925;-63
2021/06/18 02:49:33;;;;;;;;;;;16.00;99.90;;;15.66;100.00;100363.72;5052277;28;20267;-63
2021/06/18 02:52:05;;;;;;;;;;;16.00;99.90;;;15.61;100.00;100357.66;5053950;28;19929;-63
2021/06/18 02:54:36;;;;;;;;;;;15.90;99.90;;;15.59;100.00;100352.56;5053407;28;20015;-63
2021/06/18 02:57:09;;;;;;;;;;;15.90;99.90;;;15.51;100.00;100347.16;5053166;28;19932;-63
2021/06/18 02:59:41;;;;;;;;;;;15.80;99.90;;;15.57;100.00;100343.91;5053404;28;19978;-63
2021/06/18 03:02:12;;;;;;;;;;;15.80;99.90;;;15.62;100.00;100332.81;5052599;28;19929;-63
2021/06/18 03:04:44;;;;;;;;;;;15.80;99.90;;;15.60;100.00;100337.78;5053008;28;20458;-63
2021/06/18 03:07:14;;;;;;;;;;;15.80;99.90;;;15.57;100.00;100340.38;5052744;28;19929;-63
2021/06/18 03:09:44;;;;;;;;;;;;;;;15.58;100.00;100348.25;5053192;28;19932;-63
2021/06/18 03:12:12;;;;;;;;;;;15.60;99.90;;;15.64;100.00;100348.81;5053351;28;20395;-63
2021/06/18 03:14:44;;;;;;;;;;;15.90;99.90;;;15.67;100.00;100348.97;5035289;28;19925;-64
2021/06/18 03:17:18;;;;;;;;;;;15.90;99.90;;;15.74;100.00;100353.88;5052915;28;19925;-63
2021/06/18 03:19:49;;;;;;;;;;;16.00;99.90;;;15.77;100.00;100347.75;5051892;28;20015;-65
2021/06/18 03:22:18;;;;;;;;;;;16.00;99.90;;;15.77;100.00;100345.03;5053403;28;19931;-65
2021/06/18 03:24:46;;;;;;;;;;;;;;;15.75;100.00;100347.25;5052717;28;19925;-65
2021/06/18 03:27:14;;;;;;;;;;;16.00;99.90;;;15.70;100.00;100345.56;5052238;28;19933;-65
2021/06/18 03:29:42;;;;;;;;;;;15.90;99.90;;;15.71;100.00;100349.09;5052977;28;19925;-64
2021/06/18 03:32:11;;;;;;;;;;;15.90;99.90;;;15.70;100.00;100350.22;5053240;28;20378;-65
2021/06/18 03:34:38;;;;;;;;;;;15.90;99.90;;;15.68;100.00;100350.56;5052551;28;19925;-65
2021/06/18 03:37:11;;;;;;;;;;;;;;;15.61;100.00;100347.56;5052338;28;19932;-62
2021/06/18 03:39:40;;;;;;;;;;;15.80;99.90;;;15.55;100.00;100345.38;5052602;28;19932;-63
2021/06/18 03:42:09;;;;;;;;;;;15.70;99.90;;;15.51;100.00;100345.25;5052687;28;19974;-63
2021/06/18 03:44:36;;;;;;;;;;;15.70;99.90;;;15.48;100.00;100348.63;5052389;28;19978;-63
2021/06/18 03:47:06;;;;;;;;;;;15.70;99.90;;;15.43;100.00;100350.75;5052355;28;19979;-63
2021/06/18 03:49:35;;;;;;;;;;;15.60;99.90;;;15.40;100.00;100357.66;5035175;28;19925;-64
2021/06/18 03:52:02;;;;;;;;;;;15.60;99.90;;;15.40;100.00;100354.13;5052604;28;19928;-64
2021/06/18 03:54:33;;;;;;;;;;;15.60;99.90;;;15.44;100.00;100371.41;5052554;28;19967;-63
2021/06/18 03:57:01;;;;;;;;;;;15.70;99.90;;;15.53;100.00;100369.44;5052354;28;19928;-63
2021/06/18 03:59:32;;;;;;;;;;;15.70;99.90;;;15.51;100.00;100372.50;5052187;28;19924;-63
2021/06/18 04:02:01;;;;;;;;;;;15.80;99.90;;;15.55;100.00;100372.63;5052750;28;19925;-63
2021/06/18 04:04:32;;;;;;;;;;;15.80;99.90;;;15.59;100.00;100374.38;5052346;28;19929;-63
2021/06/18 04:07:00;;;;;;;;;;;15.80;99.90;;;15.57;100.00;100379.34;5050930;28;19925;-63
2021/06/18 04:09:28;;;;;;;;;;;15.80;99.90;;;15.59;100.00;100388.00;5052126;28;20321;-64
2021/06/18 04:11:58;;;;;;;;;;;15.80;99.90;;;15.59;100.00;100392.66;5052343;28;20375;-63
2021/06/18 04:14:25;;;;;;;;;;;15.90;99.90;;;15.61;100.00;100391.19;5052508;28;19978;-65
2021/06/18 04:16:53;;;;;;;;;;;15.90;99.90;;;15.64;100.00;100397.88;5051459;28;19925;-64
2021/06/18 04:19:21;;;;;;;;;;;15.90;99.90;;;15.69;100.00;100401.19;5052125;28;19929;-65
2021/06/18 04:21:49;;;;;;;;;;;15.90;99.90;;;15.76;100.00;100398.75;5052186;28;19928;-64
2021/06/18 04:24:17;;;;;;;;;;;16.00;99.90;;;15.83;100.00;100401.72;5052581;28;19928;-65
2021/06/18 04:26:45;;;;;;;;;;;16.00;99.90;;;15.87;100.00;100409.25;5051397;28;19924;-63
2021/06/18 04:29:14;;;;;;;;;;;16.10;99.90;;;15.89;100.00;100405.06;5050921;28;19932;-63
2021/06/18 04:31:44;;;;;;;;;;;16.10;99.90;;;15.92;100.00;100409.03;5052147;28;19932;-62
2021/06/18 04:34:11;;;;;;;;;;;16.10;99.90;;;15.93;100.00;100405.94;5052466;28;19925;-63
2021/06/18 04:36:39;;;;;;;;;;;16.20;99.90;;;15.89;100.00;100402.31;5051305;28;19947;-63
2021/06/18 04:39:08;;;;;;;;;;;16.10;99.90;;;15.83;100.00;100409.13;5034375;28;19935;-63
2021/06/18 04:41:36;;;;;;;;;;;16.00;99.90;;;15.81;100.00;100411.34;5052209;28;19929;-63
2021/06/18 04:44:04;;;;;;;;;;;16.00;99.90;;;15.79;100.00;100403.53;5052274;28;19979;-63
2021/06/18 04:46:34;;;;;;;;;;;16.00;99.90;;;15.76;100.00;100406.13;5051332;28;19929;-64
2021/06/18 04:49:02;;;;;;;;;;;16.00;99.90;;;15.69;100.00;100401.19;5051896;28;19932;-63
2021/06/18 04:51:30;;;;;;;;;;;16.00;99.90;;;15.61;100.00;100409.44;5052095;28;19974;-63
2021/06/18 04:53:57;;;;;;;;;;;15.90;99.90;;;15.54;100.00;100411.91;5054313;28;19982;-63
2021/06/18 04:56:25;;;;;;;;;;;15.80;99.90;;;15.56;100.00;100412.38;5055234;28;19929;-63
2021/06/18 04:58:53;;;;;;;;;;;15.80;99.90;;;15.60;100.00;100407.84;5055450;28;19932;-64
2021/06/18 05:01:21;;;;;;;;;;;15.80;99.90;;;15.61;100.00;100407.53;5055880;28;19932;-63
2021/06/18 05:03:50;;;;;;;;;;;15.80;99.90;;;15.58;100.00;100408.19;5055877;28;20286;-64
2021/06/18 05:06:19;;;;;;;;;;;15.70;99.90;;;15.51;100.00;100407.13;5055069;28;19929;-63
2021/06/18 05:08:47;;;;;;;;;;;15.70;99.90;;;15.47;100.00;100398.00;5054249;28;19929;-63
2021/06/18 05:11:14;;;;;;;;;;;15.70;99.90;;;15.44;100.00;100401.38;5055585;28;19924;-63
2021/06/18 05:13:42;;;;;;;;;;;15.60;99.90;;;15.46;100.00;100408.09;5055626;28;19925;-63
2021/06/18 05:16:10;;;;;;;;;;;15.70;99.90;;;15.43;100.00;100403.31;5053774;28;20378;-63
2021/06/18 05:18:39;;;;;;;;;;;15.70;99.90;;;15.43;100.00;100416.94;5054301;28;21435;-63
2021/06/18 05:21:08;;;;;;;;;;;15.70;99.90;;;15.43;100.00;100413.41;5054407;28;20008;-63
2021/06/18 05:23:36;;;;;;;;;;;15.70;99.90;;;15.43;100.00;100407.97;5054239;28;19929;-63
2021/06/18 05:26:04;;;;;;;;;;;15.70;99.90;;;15.43;100.00;100408.75;5054736;28;19924;-62
2021/06/18 05:28:32;;;;;;;;;;;15.70;99.90;;;15.44;100.00;100415.78;5053681;28;19925;-63
2021/06/18 05:31:00;;;;;;;;;;;15.60;99.90;;;15.51;100.00;100415.28;5055159;28;19929;-63
2021/06/18 05:33:28;;;;;;;;;;;15.70;99.90;;;15.56;100.00;100418.63;5055574;28;19928;-63
2021/06/18 05:35:55;;;;;;;;;;;15.80;99.90;;;15.57;100.00;100420.22;5054627;28;19936;-64
2021/06/18 05:38:25;;;;;;;;;;;15.80;99.90;;;15.59;100.00;100422.63;5053483;28;19928;-63
2021/06/18 05:40:53;;;;;;;;;;;15.80;99.90;;;15.58;100.00;100426.47;5054869;28;19990;-63
2021/06/18 05:43:21;;;;;;;;;;;15.80;99.90;;;15.51;100.00;100418.03;5055259;28;19925;-63
2021/06/18 05:45:48;;;;;;;;;;;15.80;99.90;;;15.51;100.00;100426.19;5053296;28;19924;-63
2021/06/18 05:48:16;;;;;;;;;;;15.70;99.90;;;15.55;100.00;100432.59;5054390;28;19948;-63
2021/06/18 05:50:44;;;;;;;;;;;15.80;99.90;;;15.57;100.00;100430.31;5054633;28;19928;-63
2021/06/18 05:53:12;;;;;;;;;;;15.80;99.90;;;15.60;100.00;100430.44;5055030;28;20297;-64
2021/06/18 05:55:41;;;;;;;;;;;15.90;99.90;;;15.60;100.00;100427.72;5053311;28;19940;-63
2021/06/18 05:58:08;;;;;;;;;;;15.90;99.90;;;15.61;100.00;100431.25;5054232;28;19952;-63
2021/06/18 06:00:36;;;;;;;;;;;15.90;99.90;;;15.63;100.00;100435.25;5054460;28;19958;-63
2021/06/18 06:03:04;;;;;;;;;;;15.90;99.90;;;15.68;100.00;100435.06;5054848;28;19924;-63
2021/06/18 06:05:32;;;;;;;;;;;15.90;99.90;;;15.73;100.00;100437.56;5053826;28;20448;-63
2021/06/18 06:08:00;;;;;;;;;;;16.00;99.90;;;15.79;100.00;100443.63;5052991;28;20404;-63
2021/06/18 06:10:28;;;;;;;;;;;16.00;99.90;;;15.78;100.00;100439.28;5054174;28;20279;-63
2021/06/18 06:12:57;;;;;;;;;;;16.10;99.90;;;15.79;100.00;100440.88;5053319;28;20336;-63
2021/06/18 06:15:25;;;;;;;;;;;16.00;99.90;;;15.78;100.00;100447.47;5052834;28;20278;-64
2021/06/18 06:17:54;;;;;;;;;;;16.10;99.90;;;15.79;100.00;100449.06;5053955;28;19929;-63
2021/06/18 06:20:21;;;;;;;;;;;16.00;99.90;;;15.83;100.00;100448.09;5052918;28;20370;-63
2021/06/18 06:22:49;;;;;;;;;;;16.10;99.90;;;15.89;100.00;100445.16;5054409;28;19952;-64
2021/06/18 06:25:17;;;;;;;;;;;16.10;99.90;;;15.98;100.00;100445.88;5053820;28;19982;-64
2021/06/18 06:27:44;;;;;;;;;;;16.20;99.90;;;16.07;100.00;100449.31;5053883;28;19932;-64
2021/06/18 06:30:15;;;;;;;;;;;16.30;99.90;;;16.15;100.00;100454.69;5053787;28;19929;-63
2021/06/18 06:32:42;;;;;;;;;;;16.40;99.90;;;16.23;100.00;100459.25;5053307;28;19932;-64
2021/06/18 06:35:11;;;;;;;;;;;16.50;99.90;;;16.32;100.00;100464.66;5053669;28;19928;-63
2021/06/18 06:37:39;;;;;;;;;;;16.60;99.90;;;16.36;100.00;100460.88;5053608;28;19929;-63
2021/06/18 06:40:08;;;;;;;;;;;16.60;99.90;;;16.37;100.00;100459.75;5053742;28;20431;-63
2021/06/18 06:42:36;;;;;;;;;;;16.60;99.90;;;16.34;100.00;100463.16;5054100;28;19929;-63
2021/06/18 06:45:05;;;;;;;;;;;16.60;99.90;;;16.32;100.00;100467.38;5052356;28;19982;-63
2021/06/18 06:47:35;;;;;;;;;;;16.60;99.90;;;16.36;100.00;100477.25;5052153;28;19929;-63
2021/06/18 06:50:03;;;;;;;;;;;16.60;99.90;;;16.40;100.00;100469.22;5052638;28;19929;-64
2021/06/18 06:52:31;;;;;;;;;;;16.70;99.90;;;16.38;100.00;100469.53;5052655;28;19925;-63
2021/06/18 06:54:59;;;;;;;;;;;16.70;99.90;;;16.33;100.00;100469.75;5052072;28;19928;-65
2021/06/18 06:57:27;;;;;;;;;;;;;;;16.34;100.00;100462.38;5053096;28;19968;-64
2021/06/18 06:59:55;;;;;;;;;;;16.70;99.90;;;16.48;100.00;100464.78;5053399;28;20248;-64
2021/06/18 07:02:22;;;;;;;;;;;16.70;99.90;;;16.56;100.00;100462.00;5053724;28;20340;-63
2021/06/18 07:04:52;;;;;;;;;;;16.80;99.90;;;16.65;100.00;100462.72;5051849;28;19924;-65
2021/06/18 07:07:19;;;;;;;;;;;17.00;99.90;;;16.67;99.71;100467.81;5053049;28;19929;-63
2021/06/18 07:09:47;;;;;;;;;;;16.90;99.90;;;16.81;99.32;100460.88;5053125;28;19929;-64
2021/06/18 07:12:15;;;;;;;;;;;17.10;99.90;;;17.13;99.62;100466.59;5052081;28;19962;-63
2021/06/18 07:14:43;;;;;;;;;;;17.40;99.90;;;17.32;97.48;100477.75;5052960;28;19928;-64
2021/06/18 07:17:11;;;;;;;;;;;17.50;99.90;;;17.35;96.21;100477.88;5052227;28;19925;-63
2021/06/18 07:19:38;;;;;;;;;;;17.80;99.90;;;17.31;96.23;100473.44;5051967;28;19929;-65
2021/06/18 07:22:09;;;;;;;;;;;17.80;99.90;;;17.25;95.94;100474.78;5052121;28;19925;-64
2021/06/18 07:24:37;;;;;;;;;;;17.80;99.90;;;17.13;94.71;100472.06;5052669;28;20298;-63
2021/06/18 07:27:05;;;;;;;;;;;17.50;99.90;;;17.00;95.04;100470.47;5052577;28;20302;-65
2021/06/18 07:29:33;;;;;;;;;;;17.40;99.90;;;17.04;97.08;100482.31;5053044;28;19925;-64
2021/06/18 07:32:01;;;;;;;;;;;17.40;99.90;;;17.11;96.00;100479.81;5053065;28;19928;-64
2021/06/18 07:34:29;;;;;;;;;;;17.50;99.90;;;17.25;96.71;100483.00;5053186;28;19928;-64
2021/06/18 07:36:56;;;;;;;;;;;17.70;99.90;;;17.42;96.66;100475.34;5052462;28;19967;-64
2021/06/18 07:39:26;;;;;;;;;;;17.70;99.90;;;17.65;96.24;100472.16;5051563;28;19929;-64
2021/06/18 07:41:53;;;;;;;;;;;18.10;99.90;;;17.71;94.42;100473.50;5052846;28;19925;-64
2021/06/18 07:44:21;;;;;;;;;;;18.20;99.90;;;17.80;91.41;100476.91;5053052;28;19929;-64
2021/06/18 07:46:49;;;;;;;;;;;18.10;99.90;;;18.17;90.92;100478.38;5052243;28;19925;-64
2021/06/18 07:49:17;;;;;;;;;;;18.40;99.90;;;18.53;87.69;100483.72;5052827;28;19929;-64
2021/06/18 07:51:44;;;;;;;;;;;18.80;99.90;;;19.39;86.58;100486.63;5052576;28;19929;-64
2021/06/18 07:54:12;;;;;;;;;;;19.60;99.90;;;20.07;81.52;100476.78;5052819;28;19925;-63
2021/06/18 07:56:44;;;;;;;;;;;20.30;99.90;;;19.99;76.65;100477.00;5050929;28;19929;-65
2021/06/18 07:59:13;;;;;;;;;;;20.40;99.90;;;19.97;77.97;100484.81;5052662;28;19979;-65
2021/06/18 08:01:40;;;;;;;;;;;20.40;99.90;;;20.00;79.04;100487.59;5052504;28;20321;-64
2021/06/18 08:04:08;;;;;;;;;;;20.50;99.90;;;20.26;76.88;100483.44;5052917;28;19931;-64
2021/06/18 08:06:37;;;;;;;;;;;20.70;99.90;;;20.73;74.46;100488.66;5050524;28;19936;-65
2021/06/18 08:09:05;;;;;;;;;;;21.10;99.90;;;20.61;72.61;100484.91;5052580;28;19947;-64
2021/06/18 08:11:33;;;;;;;;;;;21.20;99.90;;;20.17;75.63;100487.19;5052207;28;20002;-64
2021/06/18 08:14:03;;;;;;;;;;;20.90;99.90;;;20.51;77.24;100484.72;5052695;28;20432;-64
2021/06/18 08:16:31;;;;;;;;;;;21.10;99.90;;;20.83;72.28;100482.53;5050614;28;19932;-65
2021/06/18 08:18:59;;;;;;;;;;;21.30;99.90;;;21.46;71.66;100486.31;5052336;28;19978;-65
2021/06/18 08:21:27;;;;;;;;;;;;;;;21.66;67.80;100492.53;5052339;28;19932;-64
2021/06/18 08:23:55;;;;;;;;;;;22.20;99.90;;;21.75;67.52;100482.81;5052296;28;19928;-64
2021/06/18 08:26:23;;;;;;;;;;;;;;;21.75;67.02;100496.59;5050439;28;19929;-64
2021/06/18 08:28:50;;;;;;;;;;;22.40;99.90;;;21.86;66.39;100490.41;5055929;28;19936;-64
2021/06/18 08:31:19;;;;;;;;;;;22.50;99.90;;;21.32;68.77;100504.56;5056228;28;19924;-63
2021/06/18 08:33:48;;;;;;;;;;;22.10;99.90;;;20.49;70.01;100495.25;5055132;28;19933;-64
2021/06/18 08:36:16;;;;;;;;;;;21.40;99.90;;;19.74;70.63;100501.16;5055754;28;20385;-63
2021/06/18 08:38:44;;;;;;;;;;;20.60;99.90;;;19.56;72.71;100502.72;5055049;28;19929;-64
2021/06/18 08:41:12;;;;;;;;;;;20.30;99.90;;;20.01;72.75;100494.69;5056136;28;20012;-64
2021/06/18 08:43:40;;;;;;;;;;;20.50;99.90;;;20.63;70.09;100496.34;5056075;28;19929;-63
2021/06/18 08:46:09;;;;;;;;;;;21.00;99.90;;;20.57;73.15;100503.28;5055487;28;19947;-66
2021/06/18 08:48:38;;;;;;;;;;;21.50;99.90;;;21.03;69.08;100493.13;5054667;28;20374;-65
2021/06/18 08:51:06;;;;;;;;;;;21.70;99.90;;;21.22;67.82;100498.53;5056019;28;19928;-65
2021/06/18 08:53:35;;;;;;;;;;;21.70;99.90;;;21.25;65.43;100500.56;5055950;28;19948;-65
2021/06/18 08:56:06;;;;;;;;;;;21.80;99.90;;;20.88;69.18;100506.97;5055282;28;19925;-66
2021/06/18 08:58:34;;;;;;;;;;;21.60;99.90;;;20.73;69.97;100514.19;5055530;28;20015;-64
2021/06/18 09:01:01;;;;;;;;;;;21.40;99.90;;;20.73;69.58;100509.44;5056001;28;19924;-66
2021/06/18 09:03:43;;;;;;;;;;;21.40;99.90;;;20.59;69.39;100511.16;5055851;28;20378;-64
2021/06/18 09:06:31;;;;;;;;;;;21.30;99.90;;;20.66;67.10;100516.78;5055200;28;20380;-63
2021/06/18 09:09:25;;;;;;;;;;;21.40;99.90;;;20.33;72.17;100517.34;5055596;28;19938;-65
2021/06/18 09:11:55;;;;;;;;;;;21.00;99.90;;;20.31;71.48;100518.84;5055618;28;19951;-63
2021/06/18 09:14:31;;;;;;;;;;;21.00;99.90;;;20.30;72.14;100518.06;5038260;28;20332;-63
2021/06/18 09:17:11;;;;;;;;;;;20.90;99.90;;;20.35;72.83;100523.25;5053790;28;19964;-64
2021/06/18 09:19:42;;;;;;;;;;;20.90;99.90;;;20.26;73.07;100527.38;5055343;28;19928;-64
2021/06/18 09:22:12;;;;;;;;;;;20.90;99.90;;;20.12;72.45;100538.84;5054527;28;19972;-63
2021/06/18 09:24:42;;;;;;;;;;;20.80;99.90;;;20.05;74.14;100534.00;5054995;28;19951;-65
2021/06/18 09:27:10;;;;;;;;;;;;;;;20.10;72.35;100536.44;5053609;28;19932;-65
2021/06/18 09:29:38;;;;;;;;;;;21.00;99.90;;;20.51;73.01;100532.22;5055059;28;20267;-63
2021/06/18 09:32:07;;;;;;;;;;;21.00;99.90;;;20.62;72.08;100526.91;5054381;28;19932;-63
2021/06/18 09:34:43;;;;;;;;;;;21.20;99.90;;;20.58;70.22;100515.84;5054781;28;19939;-63
2021/06/18 09:37:19;;;;;;;;;;;21.20;99.90;;;21.41;68.32;100514.16;5055104;28;19968;-63
2021/06/18 09:40:02;;;;;;;;;;;;;;;22.06;66.15;100508.41;5054271;28;20027;-65
2021/06/18 09:42:30;;;;;;;;;;;22.90;99.90;;;22.29;64.32;100515.41;5054033;28;19925;-65
2021/06/18 09:45:03;;;;;;;;;;;22.80;99.90;;;22.38;63.02;100517.84;5054638;28;19928;-64
2021/06/18 09:47:31;;;;;;;;;;;23.10;99.90;;;22.64;61.84;100514.22;5054575;28;19928;-64
2021/06/18 09:50:00;;;;;;;;;;;23.20;99.90;;;22.52;62.10;100517.22;5053613;28;20128;-64
2021/06/18 09:52:28;;;;;;;;;;;;;;;22.31;62.00;100507.53;5055125;28;19925;-63
2021/06/18 09:54:56;;;;;;;;;;;23.10;99.90;;;22.36;63.24;100516.66;5054257;28;20301;-65
2021/06/18 09:57:25;;;;;;;;;;;23.00;99.90;;;22.35;62.45;100507.59;5054485;28;19924;-65
2021/06/18 09:59:57;;;;;;;;;;;23.10;99.90;;;22.64;63.07;100514.22;5054597;28;20387;-63
2021/06/18 10:02:37;;;;;;;;;;;23.20;99.90;;;22.84;61.63;100512.84;5055065;28;19975;-65
2021/06/18 10:05:09;;;;;;;;;;;23.50;99.90;;;22.56;61.02;100518.84;5054228;28;19925;-63
2021/06/18 10:07:37;;;;;;;;;;;23.30;99.90;;;22.37;61.76;100507.22;5054318;28;19932;-63
2021/06/18 10:10:07;;;;;;;;;;;22.90;99.90;;;22.15;63.25;100528.19;5054395;28;20188;-64
2021/06/18 10:12:35;;;;;;;;;;;22.80;99.90;;;22.06;61.98;100525.75;5054223;28;19929;-63
2021/06/18 10:15:07;;;;;;;;;;;22.80;99.90;;;21.83;64.76;100524.19;5052723;28;19928;-65
2021/06/18 10:17:37;;;;;;;;;;;22.60;99.90;;;21.65;64.25;100535.75;5053976;28;20351;-65
2021/06/18 10:20:09;;;;;;;;;;;22.40;99.90;;;21.71;67.75;100527.97;5054276;28;19931;-63
2021/06/18 10:22:40;;;;;;;;;;;22.30;99.90;;;21.46;65.68;100530.34;5054564;28;19938;-63
2021/06/18 10:25:10;;;;;;;;;;;22.20;99.90;;;21.22;68.04;100541.75;5053904;28;19955;-65
2021/06/18 10:27:42;;;;;;;;;;;;;;;20.79;67.45;100542.16;5053733;28;19948;-65
2021/06/18 10:30:32;;;;;;;;;;;21.60;99.90;;;21.11;69.34;100533.31;5052769;28;19925;-63
2021/06/18 10:33:01;;;;;;;;;;;21.60;99.90;;;21.23;67.78;100538.63;5053258;28;20428;-65
2021/06/18 10:35:55;;;;;;;;;;;21.80;99.90;;;21.15;69.48;100541.63;5052309;28;20449;-66
2021/06/18 10:38:29;;;;;;;;;;;21.80;99.90;;;21.04;70.89;100544.16;5051794;28;19924;-65
2021/06/18 10:40:58;;;;;;;;;;;21.50;99.90;;;20.69;70.02;100547.09;5052740;28;20298;-66
2021/06/18 10:43:38;;;;;;;;;;;21.40;99.90;;;20.80;70.03;100549.22;5054185;28;19932;-64
2021/06/18 10:46:11;;;;;;;;;;;21.40;99.90;;;20.81;69.74;100548.88;5053244;28;19925;-64
2021/06/18 10:49:04;;;;;;;;;;;21.60;99.90;;;21.17;69.58;100540.09;5052384;28;19978;-66
2021/06/18 10:51:48;;;;;;;;;;;22.10;99.90;;;21.69;67.76;100542.09;5052895;28;19933;-66
2021/06/18 10:54:25;;;;;;;;;;;22.40;99.90;;;21.90;66.29;100543.59;5053854;28;19932;-65
2021/06/18 10:56:57;;;;;;;;;;;22.40;99.90;;;21.86;65.11;100545.47;5052957;28;20382;-65
2021/06/18 10:59:36;;;;;;;;;;;22.50;99.90;;;21.91;65.96;100542.44;5053541;28;20310;-66
2021/06/18 11:02:25;;;;;;;;;;;22.50;99.90;;;21.95;66.08;100540.50;5053752;28;19979;-66
2021/06/18 11:04:55;;;;;;;;;;;22.50;99.90;;;22.26;63.99;100532.66;5052883;28;19935;-65
2021/06/18 11:07:26;;;;;;;;;;;22.80;99.90;;;22.57;62.79;100534.22;5052931;28;19964;-65
2021/06/18 11:09:55;;;;;;;;;;;23.10;99.90;;;22.45;62.50;100525.41;5053276;28;19925;-65
2021/06/18 11:12:50;;;;;;;;;;;23.10;99.90;;;22.15;63.38;100533.72;5053529;28;19932;-66
2021/06/18 11:15:43;;;;;;;;;;;22.90;99.90;;;22.20;65.60;100528.66;5053005;28;19924;-66
2021/06/18 11:18:15;;;;;;;;;;;22.80;99.90;;;22.14;66.27;100524.66;5052676;28;19924;-66
2021/06/18 11:21:10;;;;;;;;;;;22.80;99.90;;;22.09;62.05;100522.25;5053227;28;20405;-65